sensor_id;sensor_type;location;lat;lon;timestamp;P1;durP1;ratioP1;P2;durP2;ratioP2
14048;SDS011;7099;53.922;10.728;2022-11-15T00:03:24;37.23;;;20.50;;
14048;SDS011;7099;53.922;10.728;2022-11-15T00:07:31;41.50;;;20.30;;
14048;SDS011;7099;53.922;10.728;2022-11-15T00:11:56;39.43;;;20.60;;
14048;SDS011;7099;53.922;10.728;2022-11-15T00:16:01;34.27;;;19.20;;
14048;SDS011;7099;53.922;10.728;2022-11-15T00:20:07;40.20;;;20.67;;
14048;SDS011;7099;53.922;10.728;2022-11-15T00:24:12;41.77;;;21.60;;
14048;SDS011;7099;53.922;10.728;2022-11-15T00:28:17;40.53;;;20.87;;
14048;SDS011;7099;53.922;10.728;2022-11-15T00:32:22;41.10;;;21.57;;
14048;SDS011;7099;53.922;10.728;2022-11-15T00:36:27;47.37;;;22.07;;
14048;SDS011;7099;53.922;10.728;2022-11-15T00:40:32;42.57;;;20.50;;
14048;SDS011;7099;53.922;10.728;2022-11-15T00:44:37;38.00;;;20.73;;
14048;SDS011;7099;53.922;10.728;2022-11-15T00:48:42;42.57;;;21.90;;
14048;SDS011;7099;53.922;10.728;2022-11-15T00:52:47;44.30;;;22.07;;
14048;SDS011;7099;53.922;10.728;2022-11-15T00:56:51;44.07;;;22.07;;
14048;SDS011;7099;53.922;10.728;2022-11-15T01:00:56;43.67;;;21.23;;
14048;SDS011;7099;53.922;10.728;2022-11-15T01:05:11;43.73;;;21.73;;
14048;SDS011;7099;53.922;10.728;2022-11-15T01:09:16;43.30;;;22.50;;
14048;SDS011;7099;53.922;10.728;2022-11-15T01:13:21;50.93;;;24.97;;
14048;SDS011;7099;53.922;10.728;2022-11-15T01:17:26;42.70;;;21.37;;
14048;SDS011;7099;53.922;10.728;2022-11-15T01:21:31;45.93;;;22.50;;
14048;SDS011;7099;53.922;10.728;2022-11-15T01:25:36;45.70;;;22.20;;
14048;SDS011;7099;53.922;10.728;2022-11-15T01:29:40;45.87;;;22.10;;
14048;SDS011;7099;53.922;10.728;2022-11-15T01:33:46;45.80;;;22.70;;
14048;SDS011;7099;53.922;10.728;2022-11-15T01:37:52;39.50;;;20.67;;
14048;SDS011;7099;53.922;10.728;2022-11-15T01:41:57;38.37;;;20.50;;
14048;SDS011;7099;53.922;10.728;2022-11-15T01:46:04;42.37;;;21.30;;
14048;SDS011;7099;53.922;10.728;2022-11-15T01:50:26;42.07;;;21.10;;
14048;SDS011;7099;53.922;10.728;2022-11-15T01:54:36;40.70;;;21.20;;
14048;SDS011;7099;53.922;10.728;2022-11-15T01:58:41;42.47;;;21.57;;
14048;SDS011;7099;53.922;10.728;2022-11-15T02:02:47;51.75;;;26.02;;
14048;SDS011;7099;53.922;10.728;2022-11-15T02:06:52;43.23;;;21.57;;
14048;SDS011;7099;53.922;10.728;2022-11-15T02:10:57;39.80;;;21.07;;
14048;SDS011;7099;53.922;10.728;2022-11-15T02:15:02;42.77;;;21.50;;
14048;SDS011;7099;53.922;10.728;2022-11-15T02:19:15;43.33;;;20.77;;
14048;SDS011;7099;53.922;10.728;2022-11-15T02:23:55;39.43;;;20.83;;
14048;SDS011;7099;53.922;10.728;2022-11-15T02:37:07;41.87;;;20.27;;
14048;SDS011;7099;53.922;10.728;2022-11-15T02:41:34;40.00;;;19.70;;
14048;SDS011;7099;53.922;10.728;2022-11-15T02:45:53;35.00;;;19.07;;
14048;SDS011;7099;53.922;10.728;2022-11-15T02:50:07;39.00;;;20.10;;
14048;SDS011;7099;53.922;10.728;2022-11-15T02:54:17;32.57;;;19.40;;
14048;SDS011;7099;53.922;10.728;2022-11-15T03:07:07;38.70;;;20.10;;
14048;SDS011;7099;53.922;10.728;2022-11-15T03:11:27;37.83;;;19.53;;
14048;SDS011;7099;53.922;10.728;2022-11-15T03:15:38;33.93;;;17.47;;
14048;SDS011;7099;53.922;10.728;2022-11-15T03:19:59;41.73;;;20.70;;
14048;SDS011;7099;53.922;10.728;2022-11-15T03:24:08;33.47;;;18.67;;
14048;SDS011;7099;53.922;10.728;2022-11-15T03:28:16;38.80;;;20.00;;
14048;SDS011;7099;53.922;10.728;2022-11-15T03:32:28;33.33;;;18.10;;
14048;SDS011;7099;53.922;10.728;2022-11-15T03:36:37;35.87;;;18.53;;
14048;SDS011;7099;53.922;10.728;2022-11-15T03:40:44;35.67;;;19.80;;
14048;SDS011;7099;53.922;10.728;2022-11-15T03:45:01;36.40;;;19.60;;
14048;SDS011;7099;53.922;10.728;2022-11-15T03:49:24;34.20;;;18.07;;
14048;SDS011;7099;53.922;10.728;2022-11-15T03:53:37;39.27;;;19.87;;
14048;SDS011;7099;53.922;10.728;2022-11-15T03:57:42;36.73;;;18.33;;
14048;SDS011;7099;53.922;10.728;2022-11-15T04:01:47;31.30;;;17.60;;
14048;SDS011;7099;53.922;10.728;2022-11-15T04:05:51;36.23;;;18.50;;
14048;SDS011;7099;53.922;10.728;2022-11-15T04:09:56;31.17;;;17.33;;
14048;SDS011;7099;53.922;10.728;2022-11-15T04:14:07;31.40;;;16.90;;
14048;SDS011;7099;53.922;10.728;2022-11-15T04:18:12;29.50;;;16.43;;
14048;SDS011;7099;53.922;10.728;2022-11-15T04:22:17;29.60;;;17.30;;
14048;SDS011;7099;53.922;10.728;2022-11-15T04:26:40;29.93;;;16.53;;
14048;SDS011;7099;53.922;10.728;2022-11-15T04:30:45;36.17;;;16.17;;
14048;SDS011;7099;53.922;10.728;2022-11-15T04:34:50;28.10;;;16.67;;
14048;SDS011;7099;53.922;10.728;2022-11-15T04:38:55;29.80;;;15.60;;
14048;SDS011;7099;53.922;10.728;2022-11-15T04:43:00;28.70;;;16.53;;
14048;SDS011;7099;53.922;10.728;2022-11-15T04:47:07;28.77;;;16.27;;
14048;SDS011;7099;53.922;10.728;2022-11-15T04:51:12;29.53;;;17.27;;
14048;SDS011;7099;53.922;10.728;2022-11-15T04:55:17;31.33;;;17.10;;
14048;SDS011;7099;53.922;10.728;2022-11-15T04:59:22;31.40;;;16.17;;
14048;SDS011;7099;53.922;10.728;2022-11-15T05:03:27;29.53;;;16.90;;
14048;SDS011;7099;53.922;10.728;2022-11-15T05:07:50;31.93;;;17.40;;
14048;SDS011;7099;53.922;10.728;2022-11-15T05:11:55;42.47;;;23.90;;
14048;SDS011;7099;53.922;10.728;2022-11-15T05:16:00;38.33;;;18.60;;
14048;SDS011;7099;53.922;10.728;2022-11-15T05:20:05;35.63;;;18.17;;
14048;SDS011;7099;53.922;10.728;2022-11-15T05:24:11;31.17;;;16.90;;
14048;SDS011;7099;53.922;10.728;2022-11-15T05:28:16;31.03;;;17.20;;
14048;SDS011;7099;53.922;10.728;2022-11-15T05:32:20;35.70;;;17.17;;
14048;SDS011;7099;53.922;10.728;2022-11-15T05:40:46;32.60;;;16.80;;
14048;SDS011;7099;53.922;10.728;2022-11-15T05:44:51;32.23;;;17.10;;
14048;SDS011;7099;53.922;10.728;2022-11-15T05:48:57;38.57;;;18.67;;
14048;SDS011;7099;53.922;10.728;2022-11-15T05:53:02;62.88;;;30.95;;
14048;SDS011;7099;53.922;10.728;2022-11-15T05:57:08;43.40;;;20.83;;
14048;SDS011;7099;53.922;10.728;2022-11-15T06:01:13;41.57;;;19.53;;
14048;SDS011;7099;53.922;10.728;2022-11-15T06:05:18;41.23;;;18.87;;
14048;SDS011;7099;53.922;10.728;2022-11-15T06:09:23;45.50;;;18.00;;
14048;SDS011;7099;53.922;10.728;2022-11-15T06:13:28;42.30;;;19.07;;
14048;SDS011;7099;53.922;10.728;2022-11-15T06:17:34;40.10;;;19.80;;
14048;SDS011;7099;53.922;10.728;2022-11-15T06:21:39;33.90;;;18.37;;
14048;SDS011;7099;53.922;10.728;2022-11-15T06:25:43;39.13;;;18.60;;
14048;SDS011;7099;53.922;10.728;2022-11-15T06:29:48;48.20;;;18.73;;
14048;SDS011;7099;53.922;10.728;2022-11-15T06:33:53;39.50;;;19.40;;
14048;SDS011;7099;53.922;10.728;2022-11-15T06:38:05;45.63;;;20.10;;
14048;SDS011;7099;53.922;10.728;2022-11-15T06:42:13;39.87;;;18.30;;
14048;SDS011;7099;53.922;10.728;2022-11-15T06:46:18;43.00;;;20.13;;
14048;SDS011;7099;53.922;10.728;2022-11-15T06:50:23;38.90;;;19.00;;
14048;SDS011;7099;53.922;10.728;2022-11-15T06:54:28;37.40;;;19.20;;
14048;SDS011;7099;53.922;10.728;2022-11-15T06:58:33;39.57;;;19.40;;
14048;SDS011;7099;53.922;10.728;2022-11-15T07:02:39;43.20;;;19.77;;
14048;SDS011;7099;53.922;10.728;2022-11-15T07:06:46;36.13;;;18.73;;
14048;SDS011;7099;53.922;10.728;2022-11-15T07:10:52;34.03;;;18.00;;
14048;SDS011;7099;53.922;10.728;2022-11-15T07:14:57;38.47;;;18.60;;
14048;SDS011;7099;53.922;10.728;2022-11-15T07:19:02;37.60;;;18.23;;
14048;SDS011;7099;53.922;10.728;2022-11-15T07:23:07;34.60;;;18.57;;
14048;SDS011;7099;53.922;10.728;2022-11-15T07:27:12;38.63;;;20.10;;
14048;SDS011;7099;53.922;10.728;2022-11-15T07:31:17;37.97;;;17.77;;
14048;SDS011;7099;53.922;10.728;2022-11-15T07:35:22;35.53;;;19.63;;
14048;SDS011;7099;53.922;10.728;2022-11-15T07:39:29;35.07;;;19.60;;
14048;SDS011;7099;53.922;10.728;2022-11-15T07:43:34;37.43;;;17.93;;
14048;SDS011;7099;53.922;10.728;2022-11-15T07:47:39;34.03;;;18.50;;
14048;SDS011;7099;53.922;10.728;2022-11-15T07:51:44;40.77;;;18.23;;
14048;SDS011;7099;53.922;10.728;2022-11-15T07:55:49;34.63;;;18.33;;
14048;SDS011;7099;53.922;10.728;2022-11-15T07:59:55;33.13;;;17.03;;
14048;SDS011;7099;53.922;10.728;2022-11-15T08:04:00;27.07;;;16.83;;
14048;SDS011;7099;53.922;10.728;2022-11-15T08:08:05;31.00;;;18.13;;
14048;SDS011;7099;53.922;10.728;2022-11-15T08:12:11;30.50;;;16.83;;
14048;SDS011;7099;53.922;10.728;2022-11-15T08:16:16;34.73;;;17.63;;
14048;SDS011;7099;53.922;10.728;2022-11-15T08:20:21;34.00;;;17.03;;
14048;SDS011;7099;53.922;10.728;2022-11-15T08:24:26;25.20;;;15.90;;
14048;SDS011;7099;53.922;10.728;2022-11-15T08:28:31;26.77;;;15.60;;
14048;SDS011;7099;53.922;10.728;2022-11-15T08:32:36;32.23;;;16.77;;
14048;SDS011;7099;53.922;10.728;2022-11-15T08:36:41;29.07;;;17.30;;
14048;SDS011;7099;53.922;10.728;2022-11-15T08:40:53;27.50;;;16.63;;
14048;SDS011;7099;53.922;10.728;2022-11-15T08:45:06;31.30;;;17.20;;
14048;SDS011;7099;53.922;10.728;2022-11-15T08:49:12;27.60;;;16.37;;
14048;SDS011;7099;53.922;10.728;2022-11-15T08:53:17;27.23;;;15.47;;
14048;SDS011;7099;53.922;10.728;2022-11-15T08:57:22;29.80;;;16.50;;
14048;SDS011;7099;53.922;10.728;2022-11-15T09:01:27;26.50;;;16.67;;
14048;SDS011;7099;53.922;10.728;2022-11-15T09:05:32;25.70;;;15.43;;
14048;SDS011;7099;53.922;10.728;2022-11-15T09:09:41;25.10;;;15.83;;
14048;SDS011;7099;53.922;10.728;2022-11-15T09:13:46;23.07;;;15.23;;
14048;SDS011;7099;53.922;10.728;2022-11-15T09:17:50;28.80;;;16.10;;
14048;SDS011;7099;53.922;10.728;2022-11-15T09:21:55;25.13;;;15.13;;
14048;SDS011;7099;53.922;10.728;2022-11-15T09:26:01;27.60;;;15.37;;
14048;SDS011;7099;53.922;10.728;2022-11-15T09:30:08;22.87;;;13.87;;
14048;SDS011;7099;53.922;10.728;2022-11-15T09:34:14;25.70;;;14.37;;
14048;SDS011;7099;53.922;10.728;2022-11-15T09:38:19;22.37;;;14.60;;
14048;SDS011;7099;53.922;10.728;2022-11-15T09:42:31;20.63;;;13.90;;
14048;SDS011;7099;53.922;10.728;2022-11-15T09:51:34;22.63;;;14.53;;
14048;SDS011;7099;53.922;10.728;2022-11-15T09:56:05;19.47;;;12.87;;
14048;SDS011;7099;53.922;10.728;2022-11-15T10:00:22;23.90;;;14.20;;
14048;SDS011;7099;53.922;10.728;2022-11-15T10:04:51;22.77;;;14.57;;
14048;SDS011;7099;53.922;10.728;2022-11-15T10:13:49;22.37;;;13.40;;
14048;SDS011;7099;53.922;10.728;2022-11-15T10:18:14;20.73;;;13.50;;
14048;SDS011;7099;53.922;10.728;2022-11-15T10:22:49;19.97;;;12.67;;
14048;SDS011;7099;53.922;10.728;2022-11-15T10:27:00;21.10;;;12.60;;
14048;SDS011;7099;53.922;10.728;2022-11-15T10:31:11;18.17;;;12.23;;
14048;SDS011;7099;53.922;10.728;2022-11-15T10:35:30;18.97;;;12.23;;
14048;SDS011;7099;53.922;10.728;2022-11-15T10:39:35;17.53;;;12.27;;
14048;SDS011;7099;53.922;10.728;2022-11-15T10:43:40;21.27;;;11.50;;
14048;SDS011;7099;53.922;10.728;2022-11-15T10:47:45;25.53;;;12.63;;
14048;SDS011;7099;53.922;10.728;2022-11-15T10:52:00;17.30;;;11.13;;
14048;SDS011;7099;53.922;10.728;2022-11-15T10:56:20;17.57;;;11.30;;
14048;SDS011;7099;53.922;10.728;2022-11-15T11:00:29;17.50;;;10.97;;
14048;SDS011;7099;53.922;10.728;2022-11-15T11:04:48;16.60;;;11.13;;
14048;SDS011;7099;53.922;10.728;2022-11-15T11:08:56;17.57;;;10.90;;
14048;SDS011;7099;53.922;10.728;2022-11-15T11:13:13;16.47;;;11.53;;
14048;SDS011;7099;53.922;10.728;2022-11-15T11:22:15;19.53;;;11.30;;
14048;SDS011;7099;53.922;10.728;2022-11-15T11:26:46;18.63;;;10.53;;
14048;SDS011;7099;53.922;10.728;2022-11-15T11:44:28;16.37;;;10.10;;
14048;SDS011;7099;53.922;10.728;2022-11-15T11:48:53;17.30;;;10.67;;
14048;SDS011;7099;53.922;10.728;2022-11-15T11:57:40;20.20;;;11.37;;
14048;SDS011;7099;53.922;10.728;2022-11-15T12:01:56;15.87;;;11.00;;
14048;SDS011;7099;53.922;10.728;2022-11-15T12:15:15;14.50;;;10.03;;
14048;SDS011;7099;53.922;10.728;2022-11-15T12:19:29;14.65;;;10.00;;
14048;SDS011;7099;53.922;10.728;2022-11-15T12:23:38;16.70;;;10.83;;
14048;SDS011;7099;53.922;10.728;2022-11-15T12:27:53;14.33;;;9.97;;
14048;SDS011;7099;53.922;10.728;2022-11-15T12:32:33;15.50;;;11.20;;
14048;SDS011;7099;53.922;10.728;2022-11-15T12:36:42;14.30;;;10.70;;
14048;SDS011;7099;53.922;10.728;2022-11-15T12:41:35;16.80;;;10.37;;
14048;SDS011;7099;53.922;10.728;2022-11-15T12:49:42;14.07;;;9.93;;
14048;SDS011;7099;53.922;10.728;2022-11-15T12:53:48;14.17;;;9.60;;
14048;SDS011;7099;53.922;10.728;2022-11-15T12:57:53;15.00;;;10.27;;
14048;SDS011;7099;53.922;10.728;2022-11-15T13:01:59;14.87;;;9.37;;
14048;SDS011;7099;53.922;10.728;2022-11-15T13:06:05;11.43;;;8.50;;
14048;SDS011;7099;53.922;10.728;2022-11-15T13:18:40;15.50;;;9.57;;
14048;SDS011;7099;53.922;10.728;2022-11-15T13:26:55;14.30;;;8.40;;
14048;SDS011;7099;53.922;10.728;2022-11-15T13:31:01;15.80;;;9.10;;
14048;SDS011;7099;53.922;10.728;2022-11-15T13:35:23;15.43;;;11.43;;
14048;SDS011;7099;53.922;10.728;2022-11-15T13:39:31;13.50;;;10.10;;
14048;SDS011;7099;53.922;10.728;2022-11-15T13:43:38;14.23;;;10.97;;
14048;SDS011;7099;53.922;10.728;2022-11-15T13:47:43;14.60;;;9.73;;
14048;SDS011;7099;53.922;10.728;2022-11-15T13:51:51;13.67;;;9.00;;
14048;SDS011;7099;53.922;10.728;2022-11-15T13:55:59;17.27;;;9.90;;
14048;SDS011;7099;53.922;10.728;2022-11-15T14:00:05;11.20;;;9.13;;
14048;SDS011;7099;53.922;10.728;2022-11-15T14:04:30;12.40;;;9.37;;
14048;SDS011;7099;53.922;10.728;2022-11-15T14:08:39;18.33;;;8.43;;
14048;SDS011;7099;53.922;10.728;2022-11-15T14:12:51;15.07;;;9.30;;
14048;SDS011;7099;53.922;10.728;2022-11-15T14:16:57;17.13;;;10.03;;
14048;SDS011;7099;53.922;10.728;2022-11-15T14:21:07;15.20;;;8.70;;
14048;SDS011;7099;53.922;10.728;2022-11-15T14:25:17;13.03;;;9.60;;
14048;SDS011;7099;53.922;10.728;2022-11-15T14:29:24;13.43;;;9.97;;
14048;SDS011;7099;53.922;10.728;2022-11-15T14:33:33;13.30;;;9.80;;
14048;SDS011;7099;53.922;10.728;2022-11-15T14:37:40;13.50;;;9.40;;
14048;SDS011;7099;53.922;10.728;2022-11-15T14:41:45;13.53;;;9.20;;
14048;SDS011;7099;53.922;10.728;2022-11-15T14:45:50;16.97;;;10.27;;
14048;SDS011;7099;53.922;10.728;2022-11-15T14:49:55;16.70;;;12.20;;
14048;SDS011;7099;53.922;10.728;2022-11-15T14:54:00;13.63;;;10.43;;
14048;SDS011;7099;53.922;10.728;2022-11-15T14:58:06;14.20;;;9.20;;
14048;SDS011;7099;53.922;10.728;2022-11-15T15:02:14;13.27;;;9.90;;
14048;SDS011;7099;53.922;10.728;2022-11-15T15:06:26;12.13;;;9.40;;
14048;SDS011;7099;53.922;10.728;2022-11-15T15:10:31;12.13;;;9.43;;
14048;SDS011;7099;53.922;10.728;2022-11-15T15:14:46;14.43;;;9.60;;
14048;SDS011;7099;53.922;10.728;2022-11-15T15:18:53;13.93;;;9.90;;
14048;SDS011;7099;53.922;10.728;2022-11-15T15:22:58;17.90;;;10.80;;
14048;SDS011;7099;53.922;10.728;2022-11-15T15:27:03;18.37;;;11.37;;
14048;SDS011;7099;53.922;10.728;2022-11-15T15:31:11;14.10;;;10.10;;
14048;SDS011;7099;53.922;10.728;2022-11-15T15:35:16;15.17;;;10.13;;
14048;SDS011;7099;53.922;10.728;2022-11-15T15:39:22;14.10;;;9.77;;
14048;SDS011;7099;53.922;10.728;2022-11-15T15:43:27;18.73;;;10.80;;
14048;SDS011;7099;53.922;10.728;2022-11-15T15:47:32;16.10;;;10.80;;
14048;SDS011;7099;53.922;10.728;2022-11-15T15:51:37;19.17;;;11.83;;
14048;SDS011;7099;53.922;10.728;2022-11-15T15:55:42;17.10;;;11.83;;
14048;SDS011;7099;53.922;10.728;2022-11-15T15:59:47;16.30;;;12.53;;
14048;SDS011;7099;53.922;10.728;2022-11-15T16:03:52;19.40;;;12.73;;
14048;SDS011;7099;53.922;10.728;2022-11-15T16:07:57;20.17;;;12.40;;
14048;SDS011;7099;53.922;10.728;2022-11-15T16:12:02;19.37;;;12.63;;
14048;SDS011;7099;53.922;10.728;2022-11-15T16:16:08;22.60;;;13.60;;
14048;SDS011;7099;53.922;10.728;2022-11-15T16:24:38;18.03;;;13.07;;
14048;SDS011;7099;53.922;10.728;2022-11-15T16:28:44;19.47;;;13.30;;
14048;SDS011;7099;53.922;10.728;2022-11-15T16:32:48;20.17;;;13.13;;
14048;SDS011;7099;53.922;10.728;2022-11-15T16:36:54;24.27;;;15.07;;
14048;SDS011;7099;53.922;10.728;2022-11-15T16:40:59;20.23;;;13.30;;
14048;SDS011;7099;53.922;10.728;2022-11-15T16:45:04;23.50;;;14.27;;
14048;SDS011;7099;53.922;10.728;2022-11-15T16:49:13;25.47;;;15.00;;
14048;SDS011;7099;53.922;10.728;2022-11-15T16:53:18;22.30;;;14.80;;
14048;SDS011;7099;53.922;10.728;2022-11-15T16:57:23;21.27;;;14.77;;
14048;SDS011;7099;53.922;10.728;2022-11-15T17:01:32;22.73;;;14.80;;
14048;SDS011;7099;53.922;10.728;2022-11-15T17:05:39;23.93;;;15.90;;
14048;SDS011;7099;53.922;10.728;2022-11-15T17:09:44;28.07;;;14.70;;
14048;SDS011;7099;53.922;10.728;2022-11-15T17:13:49;18.63;;;14.23;;
14048;SDS011;7099;53.922;10.728;2022-11-15T17:17:54;18.80;;;13.80;;
14048;SDS011;7099;53.922;10.728;2022-11-15T17:21:59;22.47;;;14.00;;
14048;SDS011;7099;53.922;10.728;2022-11-15T17:26:04;22.50;;;15.57;;
14048;SDS011;7099;53.922;10.728;2022-11-15T17:30:29;21.97;;;14.67;;
14048;SDS011;7099;53.922;10.728;2022-11-15T17:34:34;25.90;;;15.03;;
14048;SDS011;7099;53.922;10.728;2022-11-15T17:38:42;21.70;;;15.07;;
14048;SDS011;7099;53.922;10.728;2022-11-15T17:42:53;24.40;;;16.10;;
14048;SDS011;7099;53.922;10.728;2022-11-15T17:47:00;26.43;;;15.87;;
14048;SDS011;7099;53.922;10.728;2022-11-15T17:51:05;29.37;;;18.10;;
14048;SDS011;7099;53.922;10.728;2022-11-15T17:55:14;24.37;;;17.13;;
14048;SDS011;7099;53.922;10.728;2022-11-15T17:59:19;26.87;;;16.50;;
14048;SDS011;7099;53.922;10.728;2022-11-15T18:03:25;23.97;;;15.37;;
14048;SDS011;7099;53.922;10.728;2022-11-15T18:07:29;23.23;;;15.30;;
14048;SDS011;7099;53.922;10.728;2022-11-15T18:11:35;28.27;;;15.73;;
14048;SDS011;7099;53.922;10.728;2022-11-15T18:15:48;25.10;;;16.30;;
14048;SDS011;7099;53.922;10.728;2022-11-15T18:19:58;34.87;;;16.30;;
14048;SDS011;7099;53.922;10.728;2022-11-15T18:24:03;24.70;;;16.57;;
14048;SDS011;7099;53.922;10.728;2022-11-15T18:28:09;28.20;;;18.80;;
14048;SDS011;7099;53.922;10.728;2022-11-15T18:32:13;22.60;;;16.77;;
14048;SDS011;7099;53.922;10.728;2022-11-15T18:36:21;26.67;;;18.23;;
14048;SDS011;7099;53.922;10.728;2022-11-15T18:40:29;26.50;;;17.80;;
14048;SDS011;7099;53.922;10.728;2022-11-15T18:44:34;32.13;;;20.37;;
14048;SDS011;7099;53.922;10.728;2022-11-15T18:48:41;24.40;;;17.13;;
14048;SDS011;7099;53.922;10.728;2022-11-15T18:52:46;26.00;;;16.97;;
14048;SDS011;7099;53.922;10.728;2022-11-15T18:56:51;26.60;;;17.60;;
14048;SDS011;7099;53.922;10.728;2022-11-15T19:01:00;27.10;;;17.47;;
14048;SDS011;7099;53.922;10.728;2022-11-15T19:05:10;28.73;;;18.53;;
14048;SDS011;7099;53.922;10.728;2022-11-15T19:09:16;25.97;;;17.77;;
14048;SDS011;7099;53.922;10.728;2022-11-15T19:13:22;30.20;;;19.23;;
14048;SDS011;7099;53.922;10.728;2022-11-15T19:17:27;26.97;;;17.97;;
14048;SDS011;7099;53.922;10.728;2022-11-15T19:21:32;29.73;;;18.63;;
14048;SDS011;7099;53.922;10.728;2022-11-15T19:25:37;32.20;;;19.30;;
14048;SDS011;7099;53.922;10.728;2022-11-15T19:29:42;26.97;;;18.37;;
14048;SDS011;7099;53.922;10.728;2022-11-15T19:33:47;27.73;;;17.80;;
14048;SDS011;7099;53.922;10.728;2022-11-15T19:37:53;28.57;;;18.07;;
14048;SDS011;7099;53.922;10.728;2022-11-15T19:41:58;28.17;;;17.80;;
14048;SDS011;7099;53.922;10.728;2022-11-15T19:46:03;29.87;;;19.33;;
14048;SDS011;7099;53.922;10.728;2022-11-15T19:50:10;27.63;;;17.60;;
14048;SDS011;7099;53.922;10.728;2022-11-15T19:54:15;25.30;;;18.17;;
14048;SDS011;7099;53.922;10.728;2022-11-15T19:58:21;24.10;;;16.60;;
14048;SDS011;7099;53.922;10.728;2022-11-15T20:02:27;25.03;;;16.70;;
14048;SDS011;7099;53.922;10.728;2022-11-15T20:06:39;23.60;;;15.90;;
14048;SDS011;7099;53.922;10.728;2022-11-15T20:10:45;22.67;;;15.60;;
14048;SDS011;7099;53.922;10.728;2022-11-15T20:14:52;24.97;;;15.93;;
14048;SDS011;7099;53.922;10.728;2022-11-15T20:18:57;24.10;;;16.23;;
14048;SDS011;7099;53.922;10.728;2022-11-15T20:23:02;21.33;;;14.90;;
14048;SDS011;7099;53.922;10.728;2022-11-15T20:27:07;26.40;;;16.40;;
14048;SDS011;7099;53.922;10.728;2022-11-15T20:31:12;26.30;;;16.10;;
14048;SDS011;7099;53.922;10.728;2022-11-15T20:35:17;25.67;;;15.10;;
14048;SDS011;7099;53.922;10.728;2022-11-15T20:39:23;26.30;;;16.50;;
14048;SDS011;7099;53.922;10.728;2022-11-15T20:43:28;25.33;;;14.80;;
14048;SDS011;7099;53.922;10.728;2022-11-15T20:47:33;23.23;;;14.60;;
14048;SDS011;7099;53.922;10.728;2022-11-15T20:51:38;25.97;;;16.17;;
14048;SDS011;7099;53.922;10.728;2022-11-15T20:55:44;35.97;;;19.73;;
14048;SDS011;7099;53.922;10.728;2022-11-15T20:59:52;26.47;;;18.00;;
14048;SDS011;7099;53.922;10.728;2022-11-15T21:03:56;27.40;;;16.57;;
14048;SDS011;7099;53.922;10.728;2022-11-15T21:08:01;27.83;;;17.10;;
14048;SDS011;7099;53.922;10.728;2022-11-15T21:12:06;24.60;;;16.13;;
14048;SDS011;7099;53.922;10.728;2022-11-15T21:16:17;23.83;;;15.13;;
14048;SDS011;7099;53.922;10.728;2022-11-15T21:20:22;23.30;;;16.00;;
14048;SDS011;7099;53.922;10.728;2022-11-15T21:24:27;26.77;;;15.60;;
14048;SDS011;7099;53.922;10.728;2022-11-15T21:28:32;25.37;;;15.60;;
14048;SDS011;7099;53.922;10.728;2022-11-15T21:32:37;28.97;;;16.27;;
14048;SDS011;7099;53.922;10.728;2022-11-15T21:36:42;25.73;;;16.00;;
14048;SDS011;7099;53.922;10.728;2022-11-15T21:40:47;29.37;;;15.93;;
14048;SDS011;7099;53.922;10.728;2022-11-15T21:44:56;26.90;;;16.40;;
14048;SDS011;7099;53.922;10.728;2022-11-15T21:49:02;26.67;;;16.50;;
14048;SDS011;7099;53.922;10.728;2022-11-15T21:53:08;26.17;;;16.50;;
14048;SDS011;7099;53.922;10.728;2022-11-15T21:57:13;26.30;;;16.10;;
14048;SDS011;7099;53.922;10.728;2022-11-15T22:01:18;27.67;;;16.30;;
14048;SDS011;7099;53.922;10.728;2022-11-15T22:05:43;28.90;;;15.00;;
14048;SDS011;7099;53.922;10.728;2022-11-15T22:09:48;30.30;;;16.80;;
14048;SDS011;7099;53.922;10.728;2022-11-15T22:13:53;27.03;;;15.80;;
14048;SDS011;7099;53.922;10.728;2022-11-15T22:17:58;30.73;;;17.10;;
14048;SDS011;7099;53.922;10.728;2022-11-15T22:22:04;30.57;;;16.43;;
14048;SDS011;7099;53.922;10.728;2022-11-15T22:26:10;30.93;;;16.37;;
14048;SDS011;7099;53.922;10.728;2022-11-15T22:30:17;29.43;;;16.70;;
14048;SDS011;7099;53.922;10.728;2022-11-15T22:34:22;28.70;;;16.07;;
14048;SDS011;7099;53.922;10.728;2022-11-15T22:38:28;33.17;;;18.27;;
14048;SDS011;7099;53.922;10.728;2022-11-15T22:42:33;34.37;;;17.30;;
14048;SDS011;7099;53.922;10.728;2022-11-15T22:46:38;30.63;;;17.20;;
14048;SDS011;7099;53.922;10.728;2022-11-15T22:50:43;30.27;;;15.73;;
14048;SDS011;7099;53.922;10.728;2022-11-15T22:54:48;30.53;;;17.70;;
14048;SDS011;7099;53.922;10.728;2022-11-15T22:58:53;29.87;;;16.27;;
14048;SDS011;7099;53.922;10.728;2022-11-15T23:02:58;29.30;;;15.43;;
14048;SDS011;7099;53.922;10.728;2022-11-15T23:07:03;27.70;;;15.50;;
14048;SDS011;7099;53.922;10.728;2022-11-15T23:11:09;32.57;;;16.83;;
14048;SDS011;7099;53.922;10.728;2022-11-15T23:15:33;26.53;;;16.30;;
14048;SDS011;7099;53.922;10.728;2022-11-15T23:19:56;44.77;;;25.60;;
14048;SDS011;7099;53.922;10.728;2022-11-15T23:24:14;30.70;;;17.17;;
14048;SDS011;7099;53.922;10.728;2022-11-15T23:28:20;27.63;;;16.60;;
14048;SDS011;7099;53.922;10.728;2022-11-15T23:32:25;28.87;;;16.73;;
14048;SDS011;7099;53.922;10.728;2022-11-15T23:36:48;27.50;;;15.87;;
14048;SDS011;7099;53.922;10.728;2022-11-15T23:40:53;34.93;;;17.97;;
14048;SDS011;7099;53.922;10.728;2022-11-15T23:44:58;29.43;;;16.70;;
14048;SDS011;7099;53.922;10.728;2022-11-15T23:49:03;31.20;;;17.40;;
14048;SDS011;7099;53.922;10.728;2022-11-15T23:53:08;31.07;;;16.43;;
14048;SDS011;7099;53.922;10.728;2022-11-15T23:57:13;26.80;;;15.73;;
